Terminal Aerodrome Forecast
Issued by NWS

Home | Current Version | Previous Version | Text Only | Print | Product List | Glossary On
Versions: 1 2 3 4 5 6 7 8 9 10 11 12
000
FTUS43 KJKL 151100
TAFSME
TAF
KSME 151137Z 1512/1612 00000KT 1/2SM FG BKN002
     FM151400 25006KT P6SM FEW040 SCT100 BKN250
     FM160700 29004KT P6SM SCT025 OVC050
     FM161000 32004KT P6SM BKN025
      AMD NOT SKED=

USA.gov is the U.S. government's official web portal to all federal, state and local government web resources and services.